createdAt,value
2023-01-04T00:00:29.627Z,3.35
2023-01-04T00:03:31.195Z,3.10
2023-01-04T00:06:32.582Z,3.97
2023-01-04T00:09:33.873Z,3.88
2023-01-04T00:12:35.388Z,3.10
2023-01-04T00:15:36.775Z,3.15
2023-01-04T00:18:38.110Z,3.00
2023-01-04T00:21:39.416Z,3.35
2023-01-04T00:24:40.702Z,3.15
2023-01-04T00:27:41.982Z,3.35
2023-01-04T00:30:43.280Z,2.78
2023-01-04T00:33:44.607Z,2.77
2023-01-04T00:36:45.914Z,2.83
2023-01-04T00:39:47.218Z,3.15
2023-01-04T00:42:48.516Z,2.63
2023-01-04T00:45:49.905Z,3.25
2023-01-04T00:48:53.945Z,3.80
2023-01-04T00:51:59.616Z,2.83
2023-01-04T00:55:00.924Z,3.10
2023-01-04T00:58:02.269Z,2.70
2023-01-04T01:01:03.577Z,3.22
2023-01-04T01:04:04.994Z,2.93
2023-01-04T01:07:06.327Z,2.97
2023-01-04T01:10:07.631Z,2.80
2023-01-04T01:13:08.937Z,2.83
2023-01-04T01:16:10.357Z,2.75
2023-01-04T01:19:11.754Z,3.03
2023-01-04T01:22:13.042Z,3.15
2023-01-04T01:25:14.344Z,3.20
2023-01-04T01:28:15.698Z,3.13
2023-01-04T01:31:17.077Z,3.00
2023-01-04T01:34:18.420Z,2.77
2023-01-04T01:37:19.732Z,2.90
2023-01-04T01:40:21.032Z,3.17
2023-01-04T01:43:22.327Z,3.17
2023-01-04T01:46:23.657Z,2.70
2023-01-04T01:49:24.983Z,2.80
2023-01-04T01:52:26.292Z,3.15
2023-01-04T01:55:27.592Z,3.50
2023-01-04T01:58:28.895Z,3.08
2023-01-04T02:01:30.306Z,3.13
2023-01-04T02:04:31.669Z,2.93
2023-01-04T02:07:32.969Z,2.60
2023-01-04T02:10:34.257Z,3.42
2023-01-04T02:13:35.569Z,2.80
2023-01-04T02:16:36.956Z,2.83
2023-01-04T02:19:38.311Z,2.90
2023-01-04T02:22:39.630Z,3.00
2023-01-04T02:25:40.961Z,3.00
2023-01-04T02:28:42.248Z,3.20
2023-01-04T02:31:43.606Z,2.35
2023-01-04T02:34:44.931Z,3.10
2023-01-04T02:37:46.251Z,3.47
2023-01-04T02:40:47.545Z,3.30
2023-01-04T02:43:48.858Z,3.10
2023-01-04T02:46:50.286Z,3.03
2023-01-04T02:49:51.681Z,2.97
2023-01-04T02:52:54.378Z,3.40
2023-01-04T02:55:55.689Z,3.40
2023-01-04T02:58:56.998Z,3.13
2023-01-04T03:01:58.357Z,3.53
2023-01-04T03:04:59.733Z,2.80
2023-01-04T03:08:01.047Z,2.88
2023-01-04T03:11:02.352Z,2.92
2023-01-04T03:14:03.640Z,2.80
2023-01-04T03:17:24.912Z,2.42
2023-01-04T03:20:26.207Z,3.10
2023-01-04T03:23:27.536Z,2.88
2023-01-04T03:26:28.893Z,3.22
2023-01-04T03:29:30.178Z,2.50
2023-01-04T03:32:31.553Z,2.67
2023-01-04T03:35:32.851Z,2.50
2023-01-04T03:38:34.145Z,2.95
2023-01-04T03:41:35.500Z,3.10
2023-01-04T03:44:36.791Z,2.80
2023-01-04T03:47:38.104Z,3.22
2023-01-04T03:50:39.421Z,2.67
2023-01-04T03:53:40.745Z,2.78
2023-01-04T03:56:42.074Z,2.58
2023-01-04T03:59:43.357Z,2.88
2023-01-04T04:02:44.672Z,2.83
2023-01-04T04:05:45.989Z,3.20
2023-01-04T04:08:47.295Z,2.58
2023-01-04T04:11:48.615Z,2.90
2023-01-04T04:14:49.909Z,2.70
2023-01-04T04:17:51.217Z,2.70
2023-01-04T04:20:52.509Z,2.40
2023-01-04T04:23:53.823Z,2.45
2023-01-04T04:26:55.120Z,2.55
2023-01-04T04:29:56.438Z,2.90
2023-01-04T04:32:57.724Z,2.70
2023-01-04T04:35:59.049Z,2.47
2023-01-04T04:39:00.410Z,2.58
2023-01-04T04:42:01.692Z,2.67
2023-01-04T04:45:03.000Z,2.63
2023-01-04T04:48:04.288Z,2.38
2023-01-04T04:51:05.593Z,2.80
2023-01-04T04:54:06.899Z,3.05
2023-01-04T04:57:08.213Z,2.85
2023-01-04T05:00:09.550Z,2.58
2023-01-04T05:03:10.980Z,2.50
2023-01-04T05:06:12.468Z,4.13
2023-01-04T05:09:13.762Z,2.85
2023-01-04T05:12:15.080Z,3.00
2023-01-04T05:15:16.378Z,2.65
2023-01-04T05:18:17.698Z,2.97
2023-01-04T05:21:20.468Z,2.70
2023-01-04T05:24:21.880Z,3.00
2023-01-04T05:27:23.186Z,3.05
2023-01-04T05:30:24.495Z,2.83
2023-01-04T05:33:25.846Z,2.85
2023-01-04T05:36:27.155Z,2.50
2023-01-04T05:39:28.468Z,2.92
2023-01-04T05:42:29.743Z,3.08
2023-01-04T05:45:31.133Z,3.15
2023-01-04T05:48:32.469Z,3.35
2023-01-04T05:51:33.790Z,3.13
2023-01-04T05:54:35.098Z,2.53
2023-01-04T05:57:36.407Z,3.08
2023-01-04T06:00:37.706Z,2.80
2023-01-04T06:03:39.113Z,3.45
2023-01-04T06:06:40.507Z,3.20
2023-01-04T06:09:41.826Z,2.90
2023-01-04T06:12:43.129Z,3.28
2023-01-04T06:15:44.410Z,3.05
2023-01-04T06:18:45.721Z,3.30
2023-01-04T06:21:46.994Z,3.30
2023-01-04T06:24:48.336Z,3.13
2023-01-04T06:27:49.646Z,3.28
2023-01-04T06:30:50.993Z,3.05
2023-01-04T06:33:52.322Z,3.47
2023-01-04T06:36:53.633Z,3.83
2023-01-04T06:39:54.935Z,3.70
2023-01-04T06:42:56.283Z,3.75
2023-01-04T06:45:57.697Z,3.35
2023-01-04T06:48:59.078Z,3.75
2023-01-04T06:52:00.368Z,3.47
2023-01-04T06:55:01.688Z,3.35
2023-01-04T06:58:02.991Z,3.60
2023-01-04T07:01:04.318Z,4.22
2023-01-04T07:04:05.672Z,4.10
2023-01-04T07:07:06.992Z,4.33
2023-01-04T07:10:09.925Z,5.03
2023-01-04T07:13:11.495Z,4.10
2023-01-04T07:16:12.843Z,4.15
2023-01-04T07:19:14.165Z,4.38
2023-01-04T07:22:15.468Z,4.10
2023-01-04T07:25:16.795Z,4.45
2023-01-04T07:28:18.117Z,5.00
2023-01-04T07:31:19.465Z,5.13
2023-01-04T07:34:20.790Z,5.18
2023-01-04T07:37:22.084Z,5.97
2023-01-04T07:40:23.389Z,6.70
2023-01-04T07:43:28.362Z,6.47
2023-01-04T07:46:30.106Z,6.55
2023-01-04T07:49:31.471Z,5.70
2023-01-04T07:52:32.833Z,5.90
2023-01-04T07:55:34.167Z,5.35
2023-01-04T07:58:35.485Z,6.30
2023-01-04T08:01:36.892Z,5.65
2023-01-04T08:04:38.255Z,5.40
2023-01-04T08:07:39.619Z,5.40
2023-01-04T08:10:40.897Z,6.20
2023-01-04T08:13:42.245Z,7.68
2023-01-04T08:16:43.551Z,8.93
2023-01-04T08:19:44.853Z,9.00
2023-01-04T08:22:46.147Z,8.50
2023-01-04T08:25:47.455Z,8.98
2023-01-04T08:28:48.738Z,10.60
2023-01-04T08:31:50.085Z,11.23
2023-01-04T08:34:51.548Z,8.23
2023-01-04T08:37:52.860Z,7.93
2023-01-04T08:40:58.487Z,7.78
2023-01-04T08:44:05.221Z,8.50
2023-01-04T08:47:06.594Z,7.25
2023-01-04T08:50:10.696Z,8.02
2023-01-04T08:53:12.495Z,7.10
2023-01-04T08:56:13.804Z,6.18
2023-01-04T08:59:15.118Z,7.20
2023-01-04T09:02:16.556Z,6.85
2023-01-04T09:05:22.289Z,6.40
2023-01-04T09:08:24.187Z,7.50
2023-01-04T09:11:25.515Z,6.57
2023-01-04T09:14:26.824Z,6.28
2023-01-04T09:17:28.117Z,7.32
2023-01-04T09:20:29.419Z,6.90
2023-01-04T09:23:30.724Z,6.83
2023-01-04T09:26:32.005Z,6.20
2023-01-04T09:29:33.309Z,6.43
2023-01-04T09:32:34.632Z,6.68
2023-01-04T09:35:35.975Z,7.13
2023-01-04T09:38:37.264Z,5.53
2023-01-04T09:41:38.581Z,6.03
2023-01-04T09:45:21.988Z,7.00
2023-01-04T09:48:01.185Z,6.20
2023-01-04T09:51:02.511Z,6.72
2023-01-04T09:54:03.808Z,6.23
2023-01-04T09:57:05.142Z,6.60
2023-01-04T10:00:06.448Z,7.50
2023-01-04T10:03:07.911Z,6.45
2023-01-04T10:06:09.349Z,10.15
2023-01-04T10:09:10.742Z,11.47
2023-01-04T10:12:12.062Z,9.85
2023-01-04T10:15:13.356Z,8.68
2023-01-04T10:20:07.917Z,8.57
2023-01-04T10:21:36.064Z,7.78
2023-01-04T10:24:37.482Z,8.17
2023-01-04T10:27:42.661Z,6.82
2023-01-04T10:30:44.292Z,7.85
2023-01-04T10:33:45.577Z,6.18
2023-01-04T10:36:46.908Z,7.63
2023-01-04T10:39:48.228Z,6.20
2023-01-04T10:42:49.596Z,6.63
2023-01-04T10:45:50.914Z,5.53
2023-01-04T10:48:52.239Z,5.50
2023-01-04T10:51:53.537Z,6.22
2023-01-04T10:54:54.937Z,5.93
2023-01-04T10:57:56.272Z,5.28
2023-01-04T11:00:57.626Z,5.00
2023-01-04T11:03:58.955Z,4.72
2023-01-04T11:07:00.323Z,5.50
2023-01-04T11:10:01.738Z,5.07
2023-01-04T11:13:03.038Z,5.55
2023-01-04T11:16:04.390Z,5.72
2023-01-04T11:19:05.740Z,5.50
2023-01-04T11:22:07.043Z,4.38
2023-01-04T11:25:34.510Z,4.60
2023-01-04T11:28:32.570Z,4.63
2023-01-04T11:31:33.911Z,5.07
2023-01-04T11:34:35.235Z,4.55
2023-01-04T11:37:36.525Z,4.80
2023-01-04T11:40:37.832Z,4.67
2023-01-04T11:43:39.119Z,4.93
2023-01-04T11:46:40.442Z,5.47
2023-01-04T11:49:41.745Z,3.97
2023-01-04T11:52:43.096Z,5.07
2023-01-04T11:55:44.398Z,4.90
2023-01-04T11:58:45.696Z,5.00
2023-01-04T12:01:47.047Z,4.53
2023-01-04T12:04:48.492Z,4.35
2023-01-04T12:07:49.788Z,4.35
2023-01-04T12:10:51.094Z,4.57
2023-01-04T12:13:52.417Z,4.05
2023-01-04T12:16:53.737Z,5.45
2023-01-04T12:19:55.092Z,4.80
2023-01-04T12:22:56.414Z,4.13
2023-01-04T12:25:57.727Z,3.43
2023-01-04T12:29:00.123Z,4.97
2023-01-04T12:32:01.427Z,3.72
2023-01-04T12:35:02.749Z,4.55
2023-01-04T12:38:04.054Z,3.97
2023-01-04T12:41:05.377Z,4.33
2023-01-04T12:44:06.697Z,4.05
2023-01-04T12:47:08.082Z,3.72
2023-01-04T12:50:09.405Z,3.40
2023-01-04T12:53:28.950Z,3.75
2023-01-04T12:56:31.530Z,3.67
2023-01-04T12:59:32.832Z,3.65
2023-01-04T13:02:34.321Z,3.75
2023-01-04T13:05:55.613Z,3.55
2023-01-04T13:08:57.159Z,3.75
2023-01-04T13:11:58.458Z,3.40
2023-01-04T13:14:59.793Z,3.85
2023-01-04T13:18:01.131Z,3.72
2023-01-04T13:21:02.432Z,3.28
2023-01-04T13:24:03.772Z,3.90
2023-01-04T13:27:05.082Z,3.20
2023-01-04T13:30:06.398Z,3.22
2023-01-04T13:36:28.969Z,3.40
2023-01-04T13:39:30.286Z,2.95
2023-01-04T13:42:31.587Z,3.20
2023-01-04T13:45:32.934Z,3.25
2023-01-04T13:48:34.233Z,3.40
2023-01-04T13:51:37.083Z,2.70
2023-01-04T13:54:39.239Z,3.53
2023-01-04T13:57:40.573Z,2.73
2023-01-04T14:00:42.964Z,2.97
2023-01-04T14:03:44.546Z,3.08
2023-01-04T14:06:45.888Z,2.90
2023-01-04T14:09:47.199Z,2.85
2023-01-04T14:12:48.511Z,3.47
2023-01-04T14:15:49.845Z,3.20
2023-01-04T14:18:51.148Z,3.10
2023-01-04T14:21:52.460Z,2.38
2023-01-04T14:25:10.063Z,3.28
2023-01-04T14:28:11.610Z,2.93
2023-01-04T14:31:13.022Z,2.67
2023-01-04T14:34:14.362Z,2.58
2023-01-04T14:37:15.684Z,2.53
2023-01-04T14:40:16.983Z,3.13
2023-01-04T14:43:18.289Z,3.27
2023-01-04T14:46:19.660Z,3.03
2023-01-04T14:49:20.971Z,3.13
2023-01-04T14:52:22.315Z,2.65
2023-01-04T14:55:23.648Z,2.92
2023-01-04T14:58:24.996Z,3.87
2023-01-04T15:01:26.392Z,3.28
2023-01-04T15:04:27.802Z,3.40
2023-01-04T15:07:29.110Z,3.40
2023-01-04T15:10:30.421Z,3.42
2023-01-04T15:13:38.745Z,3.43
2023-01-04T15:16:40.702Z,3.80
2023-01-04T15:19:42.038Z,3.63
2023-01-04T15:22:43.343Z,3.00
2023-01-04T15:25:44.635Z,3.70
2023-01-04T15:28:45.944Z,3.30
2023-01-04T15:31:47.513Z,3.70
2023-01-04T15:34:48.847Z,3.70
2023-01-04T15:37:50.148Z,3.90
2023-01-04T15:40:51.465Z,3.58
2023-01-04T15:43:52.766Z,3.93
2023-01-04T15:46:54.238Z,3.72
2023-01-04T15:49:55.604Z,3.92
2023-01-04T15:52:56.915Z,4.00
2023-01-04T15:55:58.227Z,4.55
2023-01-04T15:58:59.514Z,3.90
2023-01-04T16:02:00.984Z,4.57
2023-01-04T16:05:02.396Z,4.70
2023-01-04T16:08:03.723Z,4.03
2023-01-04T16:11:05.030Z,4.60
2023-01-04T16:14:06.331Z,4.30
2023-01-04T16:17:07.674Z,4.35
2023-01-04T16:20:08.970Z,4.93
2023-01-04T16:23:10.285Z,4.38
2023-01-04T16:26:11.598Z,5.70
2023-01-04T16:29:12.956Z,5.47
2023-01-04T16:32:14.262Z,5.72
2023-01-04T16:35:15.580Z,6.13
2023-01-04T16:38:16.868Z,5.82
2023-01-04T16:41:18.221Z,5.72
2023-01-04T16:44:19.526Z,5.93
2023-01-04T16:47:20.961Z,6.20
2023-01-04T16:50:22.384Z,6.93
2023-01-04T16:53:23.704Z,6.97
2023-01-04T16:56:25.015Z,6.63
2023-01-04T16:59:26.366Z,5.97
2023-01-04T17:02:27.731Z,5.97
2023-01-04T17:05:29.081Z,6.55
2023-01-04T17:08:30.387Z,7.53
2023-01-04T17:12:19.145Z,6.97
2023-01-04T17:15:15.035Z,7.37
2023-01-04T17:18:14.306Z,6.40
2023-01-04T17:21:33.250Z,7.60
2023-01-04T17:24:35.867Z,7.43
2023-01-04T17:27:37.233Z,7.40
2023-01-04T17:30:38.615Z,7.80
2023-01-04T17:33:39.913Z,7.72
2023-01-04T17:36:41.502Z,8.15
2023-01-04T17:39:42.903Z,8.10
2023-01-04T17:42:44.195Z,8.32
2023-01-04T17:45:45.587Z,8.10
2023-01-04T17:48:47.249Z,8.50
2023-01-04T17:51:48.623Z,8.23
2023-01-04T17:54:50.327Z,8.40
2023-01-04T17:57:51.707Z,9.18
2023-01-04T18:00:53.370Z,8.50
2023-01-04T18:03:55.028Z,8.15
2023-01-04T18:06:56.412Z,9.10
2023-01-04T18:09:58.124Z,8.80
2023-01-04T18:12:59.901Z,9.10
2023-01-04T18:16:23.091Z,9.63
2023-01-04T18:19:23.652Z,9.05
2023-01-04T18:22:25.300Z,10.10
2023-01-04T18:25:26.988Z,10.18
2023-01-04T18:28:28.642Z,10.02
2023-01-04T18:31:30.343Z,9.23
2023-01-04T18:34:31.976Z,9.55
2023-01-04T18:37:33.567Z,10.75
2023-01-04T18:40:34.944Z,9.48
2023-01-04T18:43:36.415Z,10.43
2023-01-04T18:46:37.728Z,10.47
2023-01-04T18:49:39.296Z,9.90
2023-01-04T18:52:40.989Z,10.38
2023-01-04T18:55:45.118Z,10.37
2023-01-04T18:58:47.516Z,10.02
2023-01-04T19:01:49.418Z,10.02
2023-01-04T19:04:50.910Z,9.77
2023-01-04T19:07:52.276Z,10.60
2023-01-04T19:10:53.909Z,9.33
2023-01-04T19:13:56.701Z,9.82
2023-01-04T19:16:58.480Z,10.18
2023-01-04T19:20:00.250Z,9.57
2023-01-04T19:23:01.655Z,9.23
2023-01-04T19:26:03.345Z,9.57
2023-01-04T19:29:05.140Z,9.13
2023-01-04T19:32:06.542Z,9.00
2023-01-04T19:35:08.106Z,9.38
2023-01-04T19:38:09.899Z,9.45
2023-01-04T19:41:11.670Z,8.77
2023-01-04T19:44:21.059Z,8.48
2023-01-04T19:47:22.868Z,8.80
2023-01-04T19:50:24.642Z,8.55
2023-01-04T19:53:26.388Z,8.15
2023-01-04T19:56:28.085Z,8.23
2023-01-04T19:59:29.912Z,9.00
2023-01-04T20:02:31.801Z,8.70
2023-01-04T20:05:34.330Z,8.02
2023-01-04T20:08:35.739Z,8.40
2023-01-04T20:11:37.479Z,7.43
2023-01-04T20:14:40.547Z,8.10
2023-01-04T20:17:42.228Z,8.27
2023-01-04T20:20:44.014Z,7.93
2023-01-04T20:23:45.825Z,8.05
2023-01-04T20:26:47.531Z,8.17
2023-01-04T20:29:49.319Z,7.85
2023-01-04T20:32:51.150Z,8.18
2023-01-04T20:35:52.818Z,7.50
2023-01-04T20:38:55.094Z,7.50
2023-01-04T20:41:56.794Z,7.37
2023-01-04T20:44:59.727Z,7.13
2023-01-04T20:48:01.559Z,7.97
2023-01-04T20:51:03.383Z,7.63
2023-01-04T20:54:05.324Z,7.22
2023-01-04T20:57:07.148Z,6.93
2023-01-04T21:00:09.367Z,7.07
2023-01-04T21:03:11.146Z,6.75
2023-01-04T21:06:12.695Z,6.85
2023-01-04T21:09:14.418Z,7.03
2023-01-04T21:12:16.307Z,6.70
2023-01-04T21:15:17.764Z,6.57
2023-01-04T21:18:19.068Z,6.47
2023-01-04T21:21:21.283Z,6.10
2023-01-04T21:24:22.804Z,6.63
2023-01-04T21:27:24.134Z,6.50
2023-01-04T21:30:25.455Z,6.25
2023-01-04T21:33:26.760Z,6.22
2023-01-04T21:36:28.402Z,6.00
2023-01-04T21:39:29.750Z,6.60
2023-01-04T21:42:31.177Z,6.77
2023-01-04T21:45:32.545Z,5.93
2023-01-04T21:48:33.954Z,5.93
2023-01-04T21:51:35.262Z,5.80
2023-01-04T21:54:36.574Z,5.90
2023-01-04T21:57:37.895Z,6.17
2023-01-04T22:00:39.240Z,6.57
2023-01-04T22:03:40.583Z,6.05
2023-01-04T22:06:41.896Z,5.43
2023-01-04T22:09:43.234Z,6.45
2023-01-04T22:12:44.555Z,6.60
2023-01-04T22:15:45.914Z,5.60
2023-01-04T22:18:47.268Z,6.30
2023-01-04T22:21:48.574Z,5.35
2023-01-04T22:24:49.865Z,6.20
2023-01-04T22:27:51.176Z,6.00
2023-01-04T22:30:52.484Z,6.00
2023-01-04T22:33:53.836Z,6.00
2023-01-04T22:36:55.189Z,6.13
2023-01-04T22:39:56.508Z,5.75
2023-01-04T22:42:57.806Z,5.13
2023-01-04T22:45:59.114Z,5.60
2023-01-04T22:49:00.408Z,5.80
2023-01-04T22:52:01.756Z,5.25
2023-01-04T22:55:03.124Z,5.57
2023-01-04T22:58:04.446Z,5.67
2023-01-04T23:01:05.765Z,5.50
2023-01-04T23:04:07.155Z,5.93
2023-01-04T23:07:08.551Z,5.72
2023-01-04T23:10:09.844Z,5.28
2023-01-04T23:13:11.155Z,5.30
2023-01-04T23:16:12.562Z,5.45
2023-01-04T23:19:14.002Z,4.63
2023-01-04T23:22:15.310Z,5.07
2023-01-04T23:25:16.594Z,5.10
2023-01-04T23:28:17.885Z,5.60
2023-01-04T23:31:19.259Z,5.13
2023-01-04T23:34:20.588Z,5.63
2023-01-04T23:37:21.887Z,4.85
2023-01-04T23:40:23.261Z,4.90
2023-01-04T23:43:24.557Z,4.20
2023-01-04T23:46:25.868Z,4.95
2023-01-04T23:49:27.161Z,5.13
2023-01-04T23:52:28.474Z,4.68
2023-01-04T23:55:29.778Z,5.57
2023-01-04T23:58:31.183Z,4.40
